createdAt,value
2019-05-11T00:00:50.688Z,100421.18
2019-05-11T00:03:20.794Z,100422.13
2019-05-11T00:05:50.680Z,100422.05
2019-05-11T00:08:20.913Z,100422.81
2019-05-11T00:10:50.697Z,100433.87
2019-05-11T00:13:20.843Z,100431.76
2019-05-11T00:15:52.694Z,100433.73
2019-05-11T00:18:22.743Z,100437.33
2019-05-11T00:20:52.403Z,100433.06
2019-05-11T00:23:21.996Z,100437.53
2019-05-11T00:25:51.583Z,100435.05
2019-05-11T00:28:21.172Z,100431.41
2019-05-11T00:30:50.786Z,100438.81
2019-05-11T00:33:20.876Z,100430.25
2019-05-11T00:35:50.467Z,100435.38
2019-05-11T00:38:20.826Z,100432.61
2019-05-11T00:40:50.444Z,100430.78
2019-05-11T00:43:20.894Z,100425.07
2019-05-11T00:45:50.491Z,100423.75
2019-05-11T00:48:20.897Z,100417.62
2019-05-11T00:50:50.529Z,100418.64
2019-05-11T00:53:21.002Z,100422.73
2019-05-11T00:55:50.600Z,100422.22
2019-05-11T00:58:20.847Z,100420.92
2019-05-11T01:00:50.487Z,100416.64
2019-05-11T01:03:20.954Z,100413.53
2019-05-11T01:05:50.546Z,100423.28
2019-05-11T01:08:20.925Z,100408.92
2019-05-11T01:10:50.511Z,100407.95
2019-05-11T01:13:20.909Z,100413.72
2019-05-11T01:15:50.513Z,100408.27
2019-05-11T01:18:20.937Z,100403.52
2019-05-11T01:20:50.526Z,100399.07
2019-05-11T01:23:20.919Z,100391.30
2019-05-11T01:25:50.505Z,100384.72
2019-05-11T01:28:20.919Z,100379.95
2019-05-11T01:30:50.558Z,100379.95
2019-05-11T01:33:21.009Z,100382.77
2019-05-11T01:35:51.183Z,100389.35
2019-05-11T01:38:20.999Z,100398.08
2019-05-11T01:40:58.605Z,100400.22
2019-05-11T01:43:21.867Z,100381.75
2019-05-11T01:45:51.518Z,100381.79
2019-05-11T01:48:21.100Z,100382.43
2019-05-11T01:50:50.662Z,100383.59
2019-05-11T01:53:20.920Z,100392.81
2019-05-11T01:55:50.560Z,100382.59
2019-05-11T01:58:20.947Z,100364.48
2019-05-11T02:00:50.543Z,100334.36
2019-05-11T02:03:20.926Z,100356.42
2019-05-11T02:05:51.712Z,100364.98
2019-05-11T02:08:21.465Z,100373.70
2019-05-11T02:10:51.075Z,100377.02
2019-05-11T02:13:22.037Z,100376.52
2019-05-11T02:15:51.619Z,100375.02
2019-05-11T02:18:21.220Z,100381.45
2019-05-11T02:20:50.860Z,100382.09
2019-05-11T02:23:20.994Z,100367.59
2019-05-11T02:25:50.568Z,100377.64
2019-05-11T02:28:20.988Z,100376.66
2019-05-11T02:30:50.642Z,100370.09
2019-05-11T02:33:21.033Z,100369.75
2019-05-11T02:35:51.681Z,100375.84
2019-05-11T02:38:21.459Z,100374.19
2019-05-11T02:40:51.029Z,100373.88
2019-05-11T02:43:20.983Z,100379.95
2019-05-11T02:45:50.556Z,100373.06
2019-05-11T02:48:21.145Z,100372.23
2019-05-11T02:50:52.155Z,100374.69
2019-05-11T02:53:22.021Z,100375.02
2019-05-11T02:55:52.616Z,100374.53
2019-05-11T02:58:22.242Z,100365.16
2019-05-11T03:00:51.827Z,100359.71
2019-05-11T03:03:21.395Z,100362.19
2019-05-11T03:05:51.004Z,100351.81
2019-05-11T03:08:21.069Z,100362.84
2019-05-11T03:10:50.651Z,100350.00
2019-05-11T03:13:21.127Z,100358.24
2019-05-11T03:15:50.821Z,100354.28
2019-05-11T03:18:21.080Z,100359.06
2019-05-11T03:20:50.651Z,100339.31
2019-05-11T03:23:21.032Z,100358.73
2019-05-11T03:25:50.606Z,100365.47
2019-05-11T03:28:21.009Z,100360.05
2019-05-11T03:30:50.580Z,100358.39
2019-05-11T03:33:21.102Z,100352.48
2019-05-11T03:35:50.672Z,100345.08
2019-05-11T03:38:21.116Z,100347.22
2019-05-11T03:40:50.721Z,100348.35
2019-05-11T03:43:21.007Z,100346.39
2019-05-11T03:45:50.595Z,100347.70
2019-05-11T03:48:21.009Z,100350.34
2019-05-11T03:50:50.683Z,100353.46
2019-05-11T03:53:21.056Z,100353.80
2019-05-11T03:55:50.626Z,100345.41
2019-05-11T03:58:25.478Z,100348.20
2019-05-11T04:00:52.323Z,100348.84
2019-05-11T04:03:21.928Z,100346.05
2019-05-11T04:05:51.502Z,100339.32
2019-05-11T04:08:21.081Z,100332.55
2019-05-11T04:10:50.650Z,100339.96
2019-05-11T04:13:21.082Z,100333.04
2019-05-11T04:15:50.681Z,100336.84
2019-05-11T04:18:21.174Z,100344.73
2019-05-11T04:20:50.774Z,100344.40
2019-05-11T04:23:21.067Z,100343.56
2019-05-11T04:25:50.654Z,100327.61
2019-05-11T04:28:21.073Z,100345.56
2019-05-11T04:30:50.687Z,100341.61
2019-05-11T04:33:21.068Z,100339.63
2019-05-11T04:35:50.661Z,100338.16
2019-05-11T04:38:21.286Z,100332.25
2019-05-11T04:40:50.949Z,100331.72
2019-05-11T04:43:21.158Z,100342.56
2019-05-11T04:45:50.913Z,100348.80
2019-05-11T04:48:21.202Z,100346.67
2019-05-11T04:50:50.919Z,100349.59
2019-05-11T04:53:21.179Z,100350.28
2019-05-11T04:55:50.749Z,100355.54
2019-05-11T04:58:21.303Z,100356.38
2019-05-11T05:00:50.903Z,100341.56
2019-05-11T05:03:21.612Z,100358.36
2019-05-11T05:05:51.205Z,100354.05
2019-05-11T05:08:26.296Z,100354.06
2019-05-11T05:10:58.746Z,100348.28
2019-05-11T05:13:29.425Z,100356.38
2019-05-11T05:15:55.524Z,100362.27
2019-05-11T05:18:25.096Z,100359.28
2019-05-11T05:20:54.687Z,100365.25
2019-05-11T05:23:24.282Z,100365.38
2019-05-11T05:25:53.893Z,100373.94
2019-05-11T05:28:23.595Z,100373.28
2019-05-11T05:30:53.199Z,100375.43
2019-05-11T05:33:22.850Z,100368.70
2019-05-11T05:35:52.435Z,100361.12
2019-05-11T05:38:22.016Z,100365.41
2019-05-11T05:40:51.617Z,100350.64
2019-05-11T05:43:27.114Z,100354.77
2019-05-11T05:45:52.808Z,100360.66
2019-05-11T05:48:22.395Z,100360.86
2019-05-11T05:50:52.069Z,100370.56
2019-05-11T05:53:21.629Z,100364.97
2019-05-11T05:55:51.236Z,100369.40
2019-05-11T05:58:21.292Z,100367.59
2019-05-11T06:00:51.000Z,100360.19
2019-05-11T06:03:21.238Z,100375.66
2019-05-11T06:05:50.863Z,100376.80
2019-05-11T06:08:21.295Z,100377.15
2019-05-11T06:10:50.878Z,100381.26
2019-05-11T06:13:21.278Z,100382.42
2019-05-11T06:15:51.011Z,100375.84
2019-05-11T06:18:21.183Z,100382.28
2019-05-11T06:20:50.928Z,100360.86
2019-05-11T06:23:21.165Z,100381.75
2019-05-11T06:25:50.751Z,100358.58
2019-05-11T06:28:21.252Z,100383.08
2019-05-11T06:30:50.901Z,100370.43
2019-05-11T06:33:21.288Z,100375.98
2019-05-11T06:35:50.949Z,100379.44
2019-05-11T06:38:21.389Z,100386.98
2019-05-11T06:40:50.984Z,100390.80
2019-05-11T06:43:21.267Z,100393.29
2019-05-11T06:45:50.834Z,100395.09
2019-05-11T06:48:21.326Z,100400.17
2019-05-11T06:50:50.963Z,100405.45
2019-05-11T06:53:21.226Z,100406.77
2019-05-11T06:55:50.832Z,100412.33
2019-05-11T06:58:21.739Z,100410.69
2019-05-11T07:00:51.366Z,100416.78
2019-05-11T07:03:21.332Z,100420.59
2019-05-11T07:05:50.979Z,100422.55
2019-05-11T07:08:21.420Z,100416.16
2019-05-11T07:10:51.033Z,100416.14
2019-05-11T07:13:21.328Z,100410.22
2019-05-11T07:15:50.899Z,100416.17
2019-05-11T07:18:21.329Z,100421.93
2019-05-11T07:20:51.161Z,100405.11
2019-05-11T07:23:21.434Z,100417.48
2019-05-11T07:25:50.999Z,100416.51
2019-05-11T07:28:21.237Z,100414.70
2019-05-11T07:30:50.814Z,100412.23
2019-05-11T07:33:21.283Z,100420.63
2019-05-11T07:35:50.855Z,100426.87
2019-05-11T07:38:21.363Z,100427.53
2019-05-11T07:40:50.980Z,100433.43
2019-05-11T07:43:21.281Z,100430.30
2019-05-11T07:45:51.018Z,100427.31
2019-05-11T07:48:21.510Z,100434.94
2019-05-11T07:50:51.324Z,100442.31
2019-05-11T07:53:21.487Z,100441.33
2019-05-11T07:55:51.146Z,100428.17
2019-05-11T07:58:21.339Z,100450.91
2019-05-11T08:00:50.902Z,100456.00
2019-05-11T08:03:21.285Z,100461.55
2019-05-11T08:05:50.853Z,100469.78
2019-05-11T08:08:24.620Z,100474.58
2019-05-11T08:10:52.641Z,100465.70
2019-05-11T08:13:22.207Z,100482.14
2019-05-11T08:15:51.877Z,100488.58
2019-05-11T08:18:21.612Z,100488.58
2019-05-11T08:20:51.402Z,100488.44
2019-05-11T08:23:21.232Z,100495.34
2019-05-11T08:25:54.288Z,100503.73
2019-05-11T08:28:22.091Z,100504.27
2019-05-11T08:30:51.664Z,100499.80
2019-05-11T08:33:21.331Z,100501.66
2019-05-11T08:35:50.911Z,100505.31
2019-05-11T08:38:21.306Z,100513.56
2019-05-11T08:40:50.928Z,100503.81
2019-05-11T08:43:21.287Z,100508.10
2019-05-11T08:45:50.915Z,100511.56
2019-05-11T08:48:21.305Z,100514.05
2019-05-11T08:50:50.876Z,100511.91
2019-05-11T08:53:21.310Z,100521.28
2019-05-11T08:55:50.894Z,100501.70
2019-05-11T08:58:21.416Z,100528.37
2019-05-11T09:00:50.990Z,100531.34
2019-05-11T09:03:21.665Z,100532.99
2019-05-11T09:05:52.319Z,100535.63
2019-05-11T09:08:22.045Z,100531.83
2019-05-11T09:10:51.647Z,100543.20
2019-05-11T09:13:21.315Z,100548.14
2019-05-11T09:15:50.907Z,100546.33
2019-05-11T09:18:21.326Z,100548.81
2019-05-11T09:20:50.970Z,100558.53
2019-05-11T09:23:33.776Z,100561.66
2019-05-11T09:25:53.021Z,100556.05
2019-05-11T09:28:22.690Z,100570.73
2019-05-11T09:30:52.331Z,100573.16
2019-05-11T09:33:22.012Z,100576.64
2019-05-11T09:35:53.413Z,100588.69
2019-05-11T09:38:22.916Z,100595.94
2019-05-11T09:40:52.564Z,100599.06
2019-05-11T09:43:22.253Z,100601.21
2019-05-11T09:45:52.229Z,100610.28
2019-05-11T09:48:21.854Z,100607.32
2019-05-11T09:50:51.497Z,100604.53
2019-05-11T09:53:21.467Z,100611.77
2019-05-11T09:55:51.061Z,100603.02
2019-05-11T09:58:21.398Z,100620.15
2019-05-11T10:00:51.192Z,100617.19
2019-05-11T10:03:22.357Z,100626.22
2019-05-11T10:05:52.044Z,100622.46
2019-05-11T10:08:21.757Z,100633.85
2019-05-11T10:10:51.381Z,100636.13
2019-05-11T10:13:21.394Z,100642.03
2019-05-11T10:16:03.479Z,100641.41
2019-05-11T10:18:24.270Z,100645.55
2019-05-11T10:20:53.760Z,100639.29
2019-05-11T10:23:23.384Z,100638.77
2019-05-11T10:25:53.000Z,100635.56
2019-05-11T10:28:22.586Z,100637.92
2019-05-11T10:30:52.184Z,100642.08
2019-05-11T10:33:21.769Z,100650.48
2019-05-11T10:35:51.375Z,100657.37
2019-05-11T10:38:21.450Z,100655.02
2019-05-11T10:40:51.235Z,100667.98
2019-05-11T10:43:21.450Z,100667.08
2019-05-11T10:45:51.130Z,100661.46
2019-05-11T10:48:21.485Z,100664.14
2019-05-11T10:50:51.097Z,100654.68
2019-05-11T10:53:21.503Z,100673.42
2019-05-11T10:55:51.073Z,100651.88
2019-05-11T10:58:21.471Z,100675.59
2019-05-11T11:00:51.217Z,100677.22
2019-05-11T11:03:21.590Z,100671.09
2019-05-11T11:05:51.150Z,100673.77
2019-05-11T11:08:21.419Z,100675.38
2019-05-11T11:10:51.019Z,100680.01
2019-05-11T11:13:21.542Z,100681.33
2019-05-11T11:15:51.148Z,100676.71
2019-05-11T11:18:21.450Z,100680.55
2019-05-11T11:20:51.193Z,100676.83
2019-05-11T11:23:21.454Z,100669.48
2019-05-11T11:25:51.054Z,100667.58
2019-05-11T11:28:21.460Z,100671.92
2019-05-11T11:30:51.063Z,100672.23
2019-05-11T11:33:21.509Z,100679.69
2019-05-11T11:35:51.138Z,100693.59
2019-05-11T11:38:21.444Z,100688.09
2019-05-11T11:40:51.069Z,100699.52
2019-05-11T11:43:21.457Z,100697.77
2019-05-11T11:45:51.082Z,100702.82
2019-05-11T11:48:21.518Z,100694.84
2019-05-11T11:50:51.310Z,100683.13
2019-05-11T11:53:21.459Z,100691.39
2019-05-11T11:55:51.061Z,100693.73
2019-05-11T11:58:23.869Z,100695.06
2019-05-11T12:00:52.808Z,100696.14
2019-05-11T12:03:22.400Z,100694.59
2019-05-11T12:05:52.007Z,100709.93
2019-05-11T12:08:21.614Z,100716.31
2019-05-11T12:10:51.323Z,100722.98
2019-05-11T12:13:21.538Z,100725.92
2019-05-11T12:15:51.267Z,100723.93
2019-05-11T12:18:21.573Z,100726.19
2019-05-11T12:20:51.201Z,100728.45
2019-05-11T12:23:21.643Z,100727.63
2019-05-11T12:25:51.260Z,100743.95
2019-05-11T12:28:21.507Z,100741.28
2019-05-11T12:30:51.120Z,100745.96
2019-05-11T12:33:21.524Z,100759.16
2019-05-11T12:35:51.137Z,100757.54
2019-05-11T12:38:21.613Z,100764.55
2019-05-11T12:40:51.205Z,100769.86
2019-05-11T12:43:22.589Z,100770.80
2019-05-11T12:45:52.332Z,100774.20
2019-05-11T12:48:21.911Z,100777.70
2019-05-11T12:50:51.506Z,100790.42
2019-05-11T12:53:21.575Z,100789.23
2019-05-11T12:55:51.147Z,100800.33
2019-05-11T12:58:21.834Z,100794.80
2019-05-11T13:00:51.516Z,100796.70
2019-05-11T13:03:21.625Z,100806.48
2019-05-11T13:05:51.221Z,100799.41
2019-05-11T13:08:21.687Z,100809.59
2019-05-11T13:10:51.360Z,100801.05
2019-05-11T13:13:21.592Z,100812.00
2019-05-11T13:15:51.186Z,100818.29
2019-05-11T13:18:21.825Z,100829.75
2019-05-11T13:20:51.407Z,100822.57
2019-05-11T13:23:21.578Z,100825.32
2019-05-11T13:25:51.190Z,100827.34
2019-05-11T13:28:21.564Z,100830.59
2019-05-11T13:30:51.153Z,100828.47
2019-05-11T13:33:21.636Z,100839.44
2019-05-11T13:35:51.314Z,100851.25
2019-05-11T13:38:21.582Z,100867.34
2019-05-11T13:40:51.201Z,100868.91
2019-05-11T13:43:21.604Z,100867.11
2019-05-11T13:45:51.191Z,100875.23
2019-05-11T13:48:21.595Z,100871.81
2019-05-11T13:50:51.308Z,100880.77
2019-05-11T13:53:21.685Z,100888.69
2019-05-11T13:55:51.476Z,100882.38
2019-05-11T13:58:21.783Z,100908.53
2019-05-11T14:00:51.411Z,100903.58
2019-05-11T14:03:21.703Z,100918.49
2019-05-11T14:05:51.275Z,100912.76
2019-05-11T14:08:21.885Z,100920.02
2019-05-11T14:10:51.806Z,100925.67
2019-05-11T14:13:21.686Z,100941.20
2019-05-11T14:15:51.421Z,100942.37
2019-05-11T14:18:21.595Z,100947.58
2019-05-11T14:20:51.178Z,100950.14
2019-05-11T14:23:21.643Z,100953.97
2019-05-11T14:25:51.374Z,100947.91
2019-05-11T14:28:21.639Z,100959.22
2019-05-11T14:30:51.257Z,100966.49
2019-05-11T14:33:21.657Z,100978.63
2019-05-11T14:35:51.637Z,100980.95
2019-05-11T14:38:21.655Z,100980.95
2019-05-11T14:40:51.409Z,100991.12
2019-05-11T14:43:21.643Z,100989.24
2019-05-11T14:45:51.378Z,100999.89
2019-05-11T14:48:26.419Z,101004.20
2019-05-11T14:50:52.984Z,101008.55
2019-05-11T14:53:24.017Z,101019.13
2019-05-11T14:55:53.769Z,101026.59
2019-05-11T14:58:23.428Z,101028.61
2019-05-11T15:00:52.991Z,101037.35
2019-05-11T15:03:22.598Z,101041.70
2019-05-11T15:05:52.161Z,101051.98
2019-05-11T15:08:21.737Z,101059.95
2019-05-11T15:10:51.345Z,101059.84
2019-05-11T15:13:21.753Z,101069.22
2019-05-11T15:15:51.312Z,101073.33
2019-05-11T15:18:34.950Z,101083.36
2019-05-11T15:20:52.967Z,101091.31
2019-05-11T15:23:22.560Z,101086.42
2019-05-11T15:25:52.218Z,101090.90
2019-05-11T15:28:21.821Z,101095.81
2019-05-11T15:30:51.375Z,101104.53
2019-05-11T15:33:21.763Z,101105.56
2019-05-11T15:35:51.410Z,101097.67
2019-05-11T15:38:21.835Z,101114.12
2019-05-11T15:40:51.407Z,101113.23
2019-05-11T15:43:21.672Z,101113.88
2019-05-11T15:45:51.239Z,101094.55
2019-05-11T15:48:21.699Z,101122.48
2019-05-11T15:50:51.542Z,101125.92
2019-05-11T15:53:21.791Z,101135.46
2019-05-11T15:55:51.371Z,101139.06
2019-05-11T15:58:21.945Z,101168.75
2019-05-11T16:00:51.577Z,101194.23
2019-05-11T16:03:21.754Z,101201.12
2019-05-11T16:05:51.339Z,101201.85
2019-05-11T16:08:21.713Z,101207.45
2019-05-11T16:10:51.497Z,101201.14
2019-05-11T16:13:21.714Z,101200.27
2019-05-11T16:15:51.482Z,101191.59
2019-05-11T16:18:21.700Z,101201.91
2019-05-11T16:20:51.377Z,101201.48
2019-05-11T16:23:22.261Z,101207.45
2019-05-11T16:25:51.848Z,101207.77
2019-05-11T16:28:21.717Z,101212.81
2019-05-11T16:30:51.345Z,101211.73
2019-05-11T16:33:21.772Z,101218.56
2019-05-11T16:35:51.604Z,101225.39
2019-05-11T16:38:21.736Z,101231.41
2019-05-11T16:40:51.399Z,101236.56
2019-05-11T16:43:21.804Z,101231.89
2019-05-11T16:45:51.423Z,101232.98
2019-05-11T16:48:21.936Z,101243.43
2019-05-11T16:50:51.512Z,101223.86
2019-05-11T16:53:21.768Z,101251.27
2019-05-11T16:55:51.494Z,101245.00
2019-05-11T16:58:21.810Z,101252.77
2019-05-11T17:00:51.399Z,101234.53
2019-05-11T17:03:21.817Z,101261.88
2019-05-11T17:05:51.678Z,101261.99
2019-05-11T17:08:22.057Z,101276.02
2019-05-11T17:10:56.034Z,101277.70
2019-05-11T17:13:25.675Z,101284.23
2019-05-11T17:15:55.398Z,101297.98
2019-05-11T17:18:25.035Z,101299.20
2019-05-11T17:20:54.638Z,101297.70
2019-05-11T17:23:24.221Z,101295.88
2019-05-11T17:25:53.898Z,101296.56
2019-05-11T17:28:23.556Z,101300.20
2019-05-11T17:30:53.145Z,101298.53
2019-05-11T17:33:23.000Z,101313.45
2019-05-11T17:35:52.673Z,101308.98
2019-05-11T17:38:22.491Z,101313.78
2019-05-11T17:40:52.087Z,101323.97
2019-05-11T17:43:21.916Z,101316.86
2019-05-11T17:45:51.493Z,101317.42
2019-05-11T17:48:21.909Z,101326.70
2019-05-11T17:50:51.479Z,101332.81
2019-05-11T17:53:21.962Z,101340.94
2019-05-11T17:55:51.639Z,101354.69
2019-05-11T17:58:21.867Z,101352.55
2019-05-11T18:00:51.488Z,101354.18
2019-05-11T18:03:21.896Z,101355.84
2019-05-11T18:05:51.542Z,101365.45
2019-05-11T18:08:21.943Z,101367.94
2019-05-11T18:10:52.121Z,101371.61
2019-05-11T18:13:21.834Z,101373.23
2019-05-11T18:15:51.411Z,101375.39
2019-05-11T18:18:24.077Z,101382.52
2019-05-11T18:20:53.376Z,101380.88
2019-05-11T18:23:23.008Z,101386.18
2019-05-11T18:25:52.606Z,101384.80
2019-05-11T18:28:22.174Z,101398.23
2019-05-11T18:30:51.788Z,101399.88
2019-05-11T18:33:21.852Z,101411.52
2019-05-11T18:35:51.451Z,101411.96
2019-05-11T18:38:21.902Z,101421.41
2019-05-11T18:40:51.510Z,101429.82
2019-05-11T18:43:21.997Z,101434.38
2019-05-11T18:45:51.571Z,101437.47
2019-05-11T18:48:21.151Z,101440.22
2019-05-11T18:50:50.838Z,101443.40
2019-05-11T18:53:20.400Z,101456.23
2019-05-11T18:55:49.992Z,101464.31
2019-05-11T18:58:19.559Z,101467.46
2019-05-11T19:00:49.149Z,101469.62
2019-05-11T19:03:19.280Z,101476.22
2019-05-11T19:05:49.143Z,101485.47
2019-05-11T19:08:19.143Z,101488.03
2019-05-11T19:10:49.036Z,101493.20
2019-05-11T19:13:18.710Z,101498.27
2019-05-11T19:15:48.875Z,101502.54
2019-05-11T19:18:18.601Z,101519.36
2019-05-11T19:20:49.434Z,101523.14
2019-05-11T19:23:19.362Z,101527.98
2019-05-11T19:25:48.894Z,101538.61
2019-05-11T19:28:18.818Z,101543.30
2019-05-11T19:30:48.905Z,101547.52
2019-05-11T19:33:19.164Z,101552.91
2019-05-11T19:35:48.820Z,101561.61
2019-05-11T19:38:18.931Z,101569.37
2019-05-11T19:40:48.670Z,101572.90
2019-05-11T19:43:18.715Z,101575.53
2019-05-11T19:45:48.803Z,101581.42
2019-05-11T19:48:18.397Z,101587.91
2019-05-11T19:51:02.743Z,101596.04
2019-05-11T19:53:19.406Z,101603.53
2019-05-11T19:55:49.023Z,101605.82
2019-05-11T19:58:19.428Z,101609.23
2019-05-11T20:00:49.131Z,101614.98
2019-05-11T20:03:18.721Z,101626.95
2019-05-11T20:05:48.658Z,101629.10
2019-05-11T20:08:18.577Z,101635.00
2019-05-11T20:10:48.767Z,101632.42
2019-05-11T20:13:18.649Z,101643.98
2019-05-11T20:15:48.565Z,101648.45
2019-05-11T20:18:18.522Z,101646.27
2019-05-11T20:20:48.288Z,101658.25
2019-05-11T20:23:17.896Z,101656.13
2019-05-11T20:25:47.854Z,101666.69
2019-05-11T20:28:18.261Z,101670.08
2019-05-11T20:30:48.373Z,101678.11
2019-05-11T20:33:18.960Z,101690.65
2019-05-11T20:35:48.870Z,101694.64
2019-05-11T20:38:18.943Z,101701.02
2019-05-11T20:40:48.585Z,101716.56
2019-05-11T20:43:18.710Z,101719.73
2019-05-11T20:45:48.729Z,101725.43
2019-05-11T20:48:18.642Z,101730.86
2019-05-11T20:50:48.460Z,101731.81
2019-05-11T20:53:18.262Z,101737.83
2019-05-11T20:55:48.038Z,101729.63
2019-05-11T20:58:18.985Z,101735.73
2019-05-11T21:00:49.259Z,101742.31
2019-05-11T21:03:18.809Z,101751.18
2019-05-11T21:05:48.402Z,101751.56
2019-05-11T21:08:18.056Z,101759.29
2019-05-11T21:10:48.989Z,101756.95
2019-05-11T21:13:18.605Z,101765.45
2019-05-11T21:15:48.177Z,101768.23
2019-05-11T21:18:18.435Z,101768.32
2019-05-11T21:20:48.478Z,101775.50
2019-05-11T21:23:18.705Z,101783.30
2019-05-11T21:25:48.432Z,101788.81
2019-05-11T21:28:18.018Z,101786.88
2019-05-11T21:30:48.176Z,101798.16
2019-05-11T21:33:17.991Z,101804.91
2019-05-11T21:35:48.861Z,101805.75
2019-05-11T21:38:18.571Z,101814.61
2019-05-11T21:40:48.608Z,101816.19
2019-05-11T21:43:18.166Z,101823.25
2019-05-11T21:45:47.800Z,101830.34
2019-05-11T21:48:17.558Z,101833.51
2019-05-11T21:50:47.193Z,101840.83
2019-05-11T21:53:18.470Z,101846.79
2019-05-11T21:55:48.246Z,101852.53
2019-05-11T21:58:18.393Z,101855.41
2019-05-11T22:00:50.304Z,101860.72
2019-05-11T22:03:20.036Z,101863.83
2019-05-11T22:05:49.594Z,101867.87
2019-05-11T22:08:19.199Z,101873.25
2019-05-11T22:10:48.829Z,101876.61
2019-05-11T22:13:20.605Z,101872.92
2019-05-11T22:15:49.702Z,101879.88
2019-05-11T22:18:30.219Z,101882.03
2019-05-11T22:20:50.585Z,101885.86
2019-05-11T22:23:20.169Z,101884.91
2019-05-11T22:25:50.566Z,101889.94
2019-05-11T22:28:20.270Z,101893.86
2019-05-11T22:30:49.890Z,101897.70
2019-05-11T22:33:19.498Z,101906.48
2019-05-11T22:35:49.066Z,101905.42
2019-05-11T22:38:18.659Z,101910.18
2019-05-11T22:40:48.785Z,101909.34
2019-05-11T22:43:18.382Z,101916.63
2019-05-11T22:45:48.635Z,101919.13
2019-05-11T22:48:18.280Z,101925.83
2019-05-11T22:50:48.092Z,101925.09
2019-05-11T22:53:19.248Z,101939.08
2019-05-11T22:55:48.893Z,101940.25
2019-05-11T22:58:18.470Z,101941.91
2019-05-11T23:00:48.112Z,101949.80
2019-05-11T23:03:18.861Z,101951.23
2019-05-11T23:05:48.951Z,101955.89
2019-05-11T23:08:18.575Z,101966.00
2019-05-11T23:10:48.216Z,101976.03
2019-05-11T23:13:18.661Z,101976.20
2019-05-11T23:15:48.549Z,101981.54
2019-05-11T23:18:18.180Z,101987.55
2019-05-11T23:20:47.947Z,101998.52
2019-05-11T23:23:18.127Z,102000.16
2019-05-11T23:25:49.345Z,102000.16
2019-05-11T23:28:18.898Z,101997.11
2019-05-11T23:30:48.487Z,102004.33
2019-05-11T23:33:18.442Z,102008.78
2019-05-11T23:35:48.598Z,102016.42
2019-05-11T23:38:18.267Z,102015.14
2019-05-11T23:40:48.234Z,102024.97
2019-05-11T23:43:19.137Z,102031.33
2019-05-11T23:45:48.930Z,102030.34
2019-05-11T23:48:18.547Z,102039.13
2019-05-11T23:50:48.129Z,102043.84
2019-05-11T23:53:17.946Z,102049.05
2019-05-11T23:55:48.369Z,102057.02
2019-05-11T23:58:19.359Z,102060.16
